createdAt,value
2023-01-08T00:02:06.161Z,8.88
2023-01-08T00:04:55.568Z,8.00
2023-01-08T00:07:43.379Z,9.85
2023-01-08T00:10:31.456Z,6.95
2023-01-08T00:13:19.566Z,9.10
2023-01-08T00:16:09.654Z,7.55
2023-01-08T00:18:57.659Z,7.28
2023-01-08T00:21:47.073Z,8.02
2023-01-08T00:24:35.084Z,6.40
2023-01-08T00:27:23.089Z,7.05
2023-01-08T00:30:11.957Z,6.53
2023-01-08T00:33:01.022Z,6.60
2023-01-08T00:35:48.848Z,6.57
2023-01-08T00:38:37.949Z,6.65
2023-01-08T00:41:26.014Z,8.27
2023-01-08T00:44:13.946Z,7.05
2023-01-08T00:47:01.670Z,7.93
2023-01-08T00:49:49.716Z,6.55
2023-01-08T00:52:39.403Z,7.88
2023-01-08T00:55:28.705Z,6.45
2023-01-08T00:58:17.076Z,7.95
2023-01-08T01:01:09.971Z,7.85
2023-01-08T01:03:57.979Z,8.13
2023-01-08T01:06:46.887Z,9.35
2023-01-08T01:09:34.910Z,10.32
2023-01-08T01:12:24.276Z,8.23
2023-01-08T01:15:15.283Z,11.52
2023-01-08T01:18:02.873Z,13.30
2023-01-08T01:20:54.491Z,13.00
2023-01-08T01:23:42.819Z,8.98
2023-01-08T01:26:31.917Z,12.35
2023-01-08T01:29:21.185Z,8.52
2023-01-08T01:32:09.591Z,7.95
2023-01-08T01:34:58.551Z,13.15
2023-01-08T01:37:46.626Z,10.43
2023-01-08T01:40:34.624Z,11.82
2023-01-08T01:43:36.494Z,8.32
2023-01-08T01:46:36.934Z,11.02
2023-01-08T01:49:25.171Z,8.57
2023-01-08T01:52:13.656Z,7.75
2023-01-08T01:55:02.491Z,11.15
2023-01-08T01:57:56.266Z,9.60
2023-01-08T02:00:44.937Z,10.45
2023-01-08T02:03:37.410Z,8.98
2023-01-08T02:06:36.914Z,10.23
2023-01-08T02:09:34.048Z,14.60
2023-01-08T02:12:30.692Z,12.45
2023-01-08T02:15:24.059Z,13.40
2023-01-08T02:18:18.968Z,13.02
2023-01-08T02:21:12.261Z,15.10
2023-01-08T02:24:08.389Z,14.82
2023-01-08T02:27:02.878Z,11.35
2023-01-08T02:29:52.476Z,17.27
2023-01-08T02:32:42.935Z,12.48
2023-01-08T02:35:41.812Z,11.48
2023-01-08T02:38:30.351Z,15.30
2023-01-08T02:41:23.579Z,14.35
2023-01-08T02:44:19.459Z,12.18
2023-01-08T02:47:13.141Z,10.85
2023-01-08T02:50:10.290Z,9.60
2023-01-08T02:53:04.342Z,10.68
2023-01-08T02:55:56.359Z,10.40
2023-01-08T02:58:46.873Z,10.15
2023-01-08T03:01:37.004Z,10.13
2023-01-08T03:04:28.745Z,9.98
2023-01-08T03:07:16.829Z,13.80
2023-01-08T03:10:04.882Z,9.18
2023-01-08T03:12:57.862Z,9.80
2023-01-08T03:15:50.858Z,8.75
2023-01-08T03:18:45.275Z,9.00
2023-01-08T03:21:34.068Z,10.57
2023-01-08T03:24:28.263Z,10.80
2023-01-08T03:27:20.098Z,12.52
2023-01-08T03:30:12.175Z,13.45
2023-01-08T03:33:02.606Z,14.85
2023-01-08T03:35:54.255Z,11.20
2023-01-08T03:38:48.554Z,12.65
2023-01-08T03:41:38.076Z,11.38
2023-01-08T03:44:26.281Z,13.75
2023-01-08T03:47:16.323Z,15.32
2023-01-08T03:50:08.376Z,13.05
2023-01-08T03:53:00.456Z,10.87
2023-01-08T03:55:48.441Z,11.68
2023-01-08T03:58:36.395Z,12.70
2023-01-08T04:01:26.633Z,12.75
2023-01-08T04:04:14.811Z,15.13
2023-01-08T04:07:02.513Z,12.70
2023-01-08T04:09:52.855Z,11.50
2023-01-08T04:12:42.136Z,10.05
2023-01-08T04:15:29.903Z,11.02
2023-01-08T04:18:17.885Z,11.73
2023-01-08T04:21:07.257Z,14.70
2023-01-08T04:23:55.426Z,12.07
2023-01-08T04:26:44.731Z,12.32
2023-01-08T04:29:32.613Z,14.80
2023-01-08T04:32:21.039Z,10.50
2023-01-08T04:35:09.316Z,12.23
2023-01-08T04:37:57.321Z,9.85
2023-01-08T04:40:45.350Z,12.38
2023-01-08T04:43:34.999Z,8.93
2023-01-08T04:46:22.909Z,7.47
2023-01-08T04:49:14.730Z,9.93
2023-01-08T04:52:02.502Z,12.85
2023-01-08T04:54:50.499Z,12.70
2023-01-08T04:57:41.655Z,12.15
2023-01-08T05:00:31.309Z,14.43
2023-01-08T05:03:19.185Z,11.10
2023-01-08T05:06:07.517Z,13.43
2023-01-08T05:08:55.280Z,13.52
2023-01-08T05:11:43.314Z,13.02
2023-01-08T05:14:31.378Z,12.80
2023-01-08T05:17:20.623Z,11.23
2023-01-08T05:20:09.510Z,12.68
2023-01-08T05:22:58.474Z,10.13
2023-01-08T05:25:46.470Z,10.85
2023-01-08T05:28:35.619Z,8.52
2023-01-08T05:31:23.167Z,13.02
2023-01-08T05:34:12.606Z,13.32
2023-01-08T05:37:03.127Z,10.93
2023-01-08T05:39:51.274Z,9.77
2023-01-08T05:42:39.299Z,13.07
2023-01-08T05:45:27.222Z,10.32
2023-01-08T05:48:15.102Z,12.23
2023-01-08T05:51:04.992Z,11.90
2023-01-08T05:53:52.952Z,10.98
2023-01-08T05:56:41.133Z,15.05
2023-01-08T05:59:29.209Z,12.57
2023-01-08T06:02:17.136Z,15.30
2023-01-08T06:05:06.490Z,12.15
2023-01-08T06:07:55.749Z,12.48
2023-01-08T06:10:43.488Z,15.90
2023-01-08T06:13:31.822Z,13.60
2023-01-08T06:16:20.974Z,13.70
2023-01-08T06:19:10.743Z,12.93
2023-01-08T06:21:58.512Z,12.27
2023-01-08T06:24:50.279Z,13.60
2023-01-08T06:27:40.480Z,13.20
2023-01-08T06:30:28.664Z,16.10
2023-01-08T06:33:16.829Z,15.45
2023-01-08T06:36:06.106Z,13.13
2023-01-08T06:38:55.778Z,15.48
2023-01-08T06:41:47.756Z,14.43
2023-01-08T06:44:35.459Z,14.85
2023-01-08T06:47:23.577Z,15.50
2023-01-08T06:50:12.648Z,13.88
2023-01-08T06:53:01.126Z,15.55
2023-01-08T06:55:49.175Z,15.52
2023-01-08T06:58:39.268Z,14.65
2023-01-08T07:01:27.389Z,17.10
2023-01-08T07:04:15.249Z,15.00
2023-01-08T07:07:03.430Z,14.18
2023-01-08T07:09:51.216Z,13.07
2023-01-08T07:12:39.463Z,15.27
2023-01-08T07:15:28.559Z,15.10
2023-01-08T07:18:16.746Z,13.45
2023-01-08T07:21:05.068Z,15.52
2023-01-08T07:24:03.672Z,14.40
2023-01-08T07:26:51.778Z,12.50
2023-01-08T07:29:41.597Z,12.10
2023-01-08T07:32:32.337Z,14.27
2023-01-08T07:35:20.128Z,14.30
2023-01-08T07:38:07.987Z,15.68
2023-01-08T07:40:55.843Z,13.80
2023-01-08T07:43:43.810Z,15.55
2023-01-08T07:46:31.952Z,12.07
2023-01-08T07:49:21.044Z,14.02
2023-01-08T07:52:09.018Z,14.18
2023-01-08T07:54:58.667Z,13.45
2023-01-08T07:57:46.251Z,10.40
2023-01-08T08:00:36.936Z,14.68
2023-01-08T08:03:25.547Z,13.73
2023-01-08T08:06:17.812Z,13.68
2023-01-08T08:09:18.549Z,12.87
2023-01-08T08:12:10.404Z,14.35
2023-01-08T08:14:58.186Z,12.75
2023-01-08T08:17:47.501Z,14.98
2023-01-08T08:20:36.400Z,15.32
2023-01-08T08:23:25.795Z,13.02
2023-01-08T08:26:14.487Z,15.00
2023-01-08T08:29:02.667Z,14.40
2023-01-08T08:31:52.583Z,15.02
2023-01-08T08:34:40.393Z,14.93
2023-01-08T08:37:28.530Z,14.10
2023-01-08T08:40:18.340Z,13.50
2023-01-08T08:43:07.020Z,13.95
2023-01-08T08:45:57.222Z,11.93
2023-01-08T08:51:57.773Z,12.93
2023-01-08T08:54:48.247Z,13.55
2023-01-08T08:57:40.199Z,15.10
2023-01-08T09:00:28.220Z,12.80
2023-01-08T09:03:18.692Z,11.90
2023-01-08T09:06:07.071Z,14.43
2023-01-08T09:08:58.382Z,14.48
2023-01-08T09:11:46.391Z,13.82
2023-01-08T09:14:36.182Z,12.45
2023-01-08T09:17:29.921Z,12.98
2023-01-08T09:20:33.086Z,13.23
2023-01-08T09:23:21.271Z,14.15
2023-01-08T09:26:10.102Z,15.43
2023-01-08T09:28:58.968Z,13.48
2023-01-08T09:31:48.192Z,11.15
2023-01-08T09:34:37.136Z,11.90
2023-01-08T09:37:27.637Z,11.70
2023-01-08T09:40:17.526Z,13.13
2023-01-08T09:43:06.986Z,10.82
2023-01-08T09:46:03.451Z,12.70
2023-01-08T09:48:59.272Z,12.07
2023-01-08T09:51:47.519Z,16.83
2023-01-08T09:54:35.285Z,12.00
2023-01-08T09:57:24.023Z,13.27
2023-01-08T10:00:16.231Z,11.52
2023-01-08T10:03:06.025Z,12.98
2023-01-08T10:05:57.636Z,13.43
2023-01-08T10:08:48.900Z,15.23
2023-01-08T10:11:44.387Z,12.90
2023-01-08T10:14:35.000Z,11.73
2023-01-08T10:17:29.106Z,12.98
2023-01-08T10:20:21.943Z,11.82
2023-01-08T10:23:13.832Z,15.13
2023-01-08T10:26:04.426Z,13.93
2023-01-08T10:28:52.524Z,14.18
2023-01-08T10:31:52.948Z,12.90
2023-01-08T10:34:52.251Z,13.07
2023-01-08T10:37:50.860Z,13.52
2023-01-08T10:40:49.705Z,15.25
2023-01-08T10:43:46.227Z,13.43
2023-01-08T10:46:48.271Z,13.68
2023-01-08T10:49:46.520Z,11.60
2023-01-08T10:52:45.821Z,12.55
2023-01-08T10:55:43.647Z,13.07
2023-01-08T10:58:42.169Z,14.18
2023-01-08T11:01:31.848Z,13.60
2023-01-08T11:04:25.692Z,12.90
2023-01-08T11:07:22.799Z,12.98
2023-01-08T11:10:24.782Z,13.68
2023-01-08T11:13:20.760Z,17.30
2023-01-08T11:16:12.377Z,13.00
2023-01-08T11:19:00.825Z,15.20
2023-01-08T11:22:04.434Z,16.48
2023-01-08T11:25:01.199Z,12.15
2023-01-08T11:28:01.019Z,14.05
2023-01-08T11:31:06.809Z,13.90
2023-01-08T11:34:16.344Z,15.63
2023-01-08T11:37:15.074Z,13.10
2023-01-08T11:40:05.979Z,12.55
2023-01-08T11:43:26.654Z,16.02
2023-01-08T11:46:59.574Z,12.90
2023-01-08T11:50:14.055Z,12.32
2023-01-08T11:53:15.839Z,11.55
2023-01-08T11:56:17.472Z,13.25
2023-01-08T11:59:19.751Z,11.50
2023-01-08T12:02:21.349Z,17.73
2023-01-08T12:05:30.479Z,13.32
2023-01-08T12:08:29.229Z,17.50
2023-01-08T12:11:26.198Z,16.00
2023-01-08T12:14:31.164Z,16.10
2023-01-08T12:17:54.266Z,13.75
2023-01-08T12:20:57.824Z,15.27
2023-01-08T12:24:12.085Z,12.90
2023-01-08T12:27:13.529Z,11.43
2023-01-08T12:30:15.472Z,12.30
2023-01-08T12:33:06.635Z,15.95
2023-01-08T12:36:03.012Z,12.18
2023-01-08T12:39:02.484Z,12.02
2023-01-08T12:41:53.668Z,14.68
2023-01-08T12:44:42.192Z,13.68
2023-01-08T12:47:34.257Z,11.88
2023-01-08T12:50:39.999Z,13.52
2023-01-08T12:53:41.489Z,14.73
2023-01-08T12:56:45.040Z,14.23
2023-01-08T12:59:43.758Z,19.48
2023-01-08T13:02:40.701Z,25.17
2023-01-08T13:05:34.487Z,47.42
2023-01-08T13:08:34.316Z,26.98
2023-01-08T13:11:29.132Z,20.17
2023-01-08T13:14:20.070Z,20.70
2023-01-08T13:17:20.636Z,14.50
2023-01-08T13:20:09.877Z,15.48
2023-01-08T13:23:00.214Z,14.85
2023-01-08T13:26:04.233Z,17.00
2023-01-08T13:28:56.500Z,14.25
2023-01-08T13:32:04.216Z,12.50
2023-01-08T13:35:20.151Z,12.30
2023-01-08T13:38:16.027Z,14.23
2023-01-08T13:41:05.395Z,14.25
2023-01-08T13:44:00.791Z,14.85
2023-01-08T13:46:56.112Z,21.88
2023-01-08T13:49:51.342Z,26.02
2023-01-08T13:52:58.137Z,16.35
2023-01-08T13:56:06.328Z,13.55
2023-01-08T13:58:58.478Z,11.68
2023-01-08T14:01:55.771Z,13.50
2023-01-08T14:04:50.919Z,10.40
2023-01-08T14:07:53.004Z,10.13
2023-01-08T14:10:49.328Z,9.20
2023-01-08T14:13:48.405Z,10.82
2023-01-08T14:17:00.449Z,11.75
2023-01-08T14:19:59.472Z,9.95
2023-01-08T14:22:54.747Z,9.82
2023-01-08T14:25:53.234Z,8.95
2023-01-08T14:28:53.325Z,10.07
2023-01-08T14:31:53.353Z,12.82
2023-01-08T14:35:02.368Z,13.10
2023-01-08T14:37:53.352Z,12.27
2023-01-08T14:40:51.134Z,9.70
2023-01-08T14:43:51.315Z,10.13
2023-01-08T14:46:55.803Z,10.48
2023-01-08T14:49:50.950Z,10.95
2023-01-08T14:53:04.967Z,10.65
2023-01-08T14:55:55.318Z,11.43
2023-01-08T14:58:55.504Z,10.50
2023-01-08T15:02:02.933Z,9.18
2023-01-08T15:05:16.323Z,12.63
2023-01-08T15:11:01.897Z,7.13
2023-01-08T15:13:56.603Z,9.55
2023-01-08T15:17:03.376Z,8.82
2023-01-08T15:19:59.224Z,10.50
2023-01-08T15:22:53.911Z,12.13
2023-01-08T15:25:54.128Z,9.27
2023-01-08T15:28:55.067Z,13.88
2023-01-08T15:31:58.525Z,9.85
2023-01-08T15:34:56.188Z,10.95
2023-01-08T15:37:53.201Z,9.50
2023-01-08T15:40:54.549Z,10.25
2023-01-08T15:44:01.075Z,8.90
2023-01-08T15:47:04.606Z,10.45
2023-01-08T15:49:57.799Z,10.13
2023-01-08T15:53:05.914Z,8.82
2023-01-08T15:55:56.847Z,10.25
2023-01-08T15:58:53.275Z,10.02
2023-01-08T16:01:53.534Z,10.75
2023-01-08T16:05:03.095Z,9.43
2023-01-08T16:07:57.528Z,11.15
2023-01-08T16:11:10.578Z,10.82
2023-01-08T16:14:04.581Z,10.25
2023-01-08T16:16:56.732Z,9.10
2023-01-08T16:19:55.525Z,18.08
2023-01-08T16:22:57.201Z,11.57
2023-01-08T16:25:45.282Z,11.95
2023-01-08T16:28:33.278Z,11.45
2023-01-08T16:31:22.129Z,10.45
2023-01-08T16:34:12.784Z,10.63
2023-01-08T16:37:13.974Z,13.60
2023-01-08T16:40:11.170Z,11.75
2023-01-08T16:43:16.579Z,12.85
2023-01-08T16:46:21.144Z,13.27
2023-01-08T16:49:10.351Z,10.55
2023-01-08T16:51:58.014Z,12.18
2023-01-08T16:54:48.396Z,13.57
2023-01-08T16:57:36.263Z,12.15
2023-01-08T17:00:26.426Z,17.98
2023-01-08T17:03:14.520Z,15.30
2023-01-08T17:06:07.092Z,10.23
2023-01-08T17:08:59.578Z,9.68
2023-01-08T17:11:52.605Z,8.85
2023-01-08T17:17:46.216Z,10.60
2023-01-08T17:20:34.651Z,8.25
2023-01-08T17:23:27.085Z,10.55
2023-01-08T17:26:18.486Z,8.27
2023-01-08T17:29:08.124Z,7.72
2023-01-08T17:31:57.930Z,8.38
2023-01-08T17:34:56.781Z,7.55
2023-01-08T17:38:10.542Z,8.68
2023-01-08T17:41:03.587Z,7.93
2023-01-08T17:43:51.508Z,8.25
2023-01-08T17:46:59.068Z,8.60
2023-01-08T17:49:57.934Z,8.50
2023-01-08T17:52:57.450Z,8.70
2023-01-08T17:56:04.505Z,6.32
2023-01-08T17:58:58.187Z,8.77
2023-01-08T18:01:56.829Z,10.23
2023-01-08T18:04:59.898Z,7.25
2023-01-08T18:08:05.222Z,7.88
2023-01-08T18:10:56.122Z,7.60
2023-01-08T18:14:05.348Z,7.50
2023-01-08T18:17:12.523Z,8.68
2023-01-08T18:20:10.922Z,9.57
2023-01-08T18:22:59.068Z,6.68
2023-01-08T18:25:56.113Z,7.22
2023-01-08T18:29:06.691Z,7.78
2023-01-08T18:31:57.837Z,11.18
2023-01-08T18:35:02.954Z,11.73
2023-01-08T18:38:20.085Z,15.07
2023-01-08T18:41:09.541Z,13.43
2023-01-08T18:43:58.078Z,17.45
2023-01-08T18:46:54.227Z,14.38
2023-01-08T18:50:04.075Z,13.95
2023-01-08T18:53:07.396Z,12.60
2023-01-08T18:56:02.780Z,13.63
2023-01-08T18:59:01.910Z,12.77
2023-01-08T19:01:59.200Z,11.82
2023-01-08T19:05:00.782Z,10.88
2023-01-08T19:08:01.648Z,11.57
2023-01-08T19:11:01.896Z,9.70
2023-01-08T19:13:58.417Z,10.15
2023-01-08T19:17:01.488Z,10.15
2023-01-08T19:20:03.868Z,12.15
2023-01-08T19:23:02.363Z,11.10
2023-01-08T19:26:24.560Z,12.20
2023-01-08T19:29:13.112Z,12.63
2023-01-08T19:32:00.899Z,10.48
2023-01-08T19:35:03.342Z,9.93
2023-01-08T19:38:26.432Z,8.45
2023-01-08T19:41:32.561Z,8.68
2023-01-08T19:44:21.773Z,10.98
2023-01-08T19:47:10.636Z,8.48
2023-01-08T19:50:02.838Z,8.27
2023-01-08T19:53:08.070Z,8.93
2023-01-08T19:56:07.022Z,8.60
2023-01-08T19:59:01.479Z,9.13
2023-01-08T20:02:03.568Z,8.40
2023-01-08T20:05:08.464Z,9.02
2023-01-08T20:08:01.459Z,10.80
2023-01-08T20:14:05.561Z,11.50
2023-01-08T20:17:17.768Z,7.82
2023-01-08T20:20:06.852Z,10.75
2023-01-08T20:23:02.949Z,11.38
2023-01-08T20:26:07.182Z,9.63
2023-01-08T20:29:10.209Z,9.18
2023-01-08T20:32:04.920Z,9.25
2023-01-08T20:34:56.502Z,8.25
2023-01-08T20:38:01.617Z,9.32
2023-01-08T20:41:10.586Z,7.28
2023-01-08T20:44:08.019Z,8.80
2023-01-08T20:46:59.693Z,9.30
2023-01-08T20:50:15.670Z,8.00
2023-01-08T20:53:10.649Z,6.78
2023-01-08T20:56:05.770Z,9.63
2023-01-08T20:59:04.461Z,8.35
2023-01-08T21:02:13.499Z,7.88
2023-01-08T21:05:06.756Z,8.30
2023-01-08T21:08:05.951Z,11.43
2023-01-08T21:11:03.724Z,7.90
2023-01-08T21:14:02.082Z,7.78
2023-01-08T21:17:06.022Z,9.52
2023-01-08T21:20:01.778Z,10.45
2023-01-08T21:23:03.087Z,7.93
2023-01-08T21:26:06.805Z,8.77
2023-01-08T21:29:02.084Z,9.70
2023-01-08T21:32:04.360Z,9.40
2023-01-08T21:35:03.555Z,12.45
2023-01-08T21:38:13.333Z,8.38
2023-01-08T21:41:07.960Z,8.32
2023-01-08T21:44:24.234Z,10.38
2023-01-08T21:47:13.958Z,8.10
2023-01-08T21:50:04.991Z,9.32
2023-01-08T21:53:13.266Z,8.18
2023-01-08T21:56:06.167Z,10.73
2023-01-08T21:59:08.486Z,10.32
2023-01-08T22:02:11.590Z,8.13
2023-01-08T22:08:08.294Z,9.90
2023-01-08T22:11:07.251Z,9.82
2023-01-08T22:14:21.414Z,12.02
2023-01-08T22:17:09.373Z,12.75
2023-01-08T22:20:03.068Z,8.63
2023-01-08T22:23:05.567Z,10.15
2023-01-08T22:26:08.433Z,12.20
2023-01-08T22:29:05.933Z,11.68
2023-01-08T22:34:57.091Z,9.60
2023-01-08T22:37:59.744Z,11.27
2023-01-08T22:40:52.465Z,10.30
2023-01-08T22:44:06.193Z,10.38
2023-01-08T22:47:06.254Z,11.13
2023-01-08T22:53:07.333Z,11.18
2023-01-08T22:56:10.594Z,12.60
2023-01-08T22:59:06.642Z,9.75
2023-01-08T23:02:08.170Z,11.98
2023-01-08T23:05:05.423Z,11.77
2023-01-08T23:07:53.154Z,10.35
2023-01-08T23:11:04.730Z,11.07
2023-01-08T23:14:18.005Z,11.07
2023-01-08T23:17:21.673Z,11.65
2023-01-08T23:22:57.986Z,10.43
2023-01-08T23:26:00.779Z,8.68
2023-01-08T23:29:04.662Z,10.68
2023-01-08T23:32:14.545Z,14.27
2023-01-08T23:35:18.438Z,12.07
2023-01-08T23:38:08.842Z,13.15
2023-01-08T23:40:57.185Z,11.63
2023-01-08T23:47:06.127Z,10.23
2023-01-08T23:50:05.775Z,13.77
2023-01-08T23:53:10.656Z,13.38
2023-01-08T23:56:07.747Z,12.32
2023-01-08T23:59:11.929Z,12.18
